Main page
METAR-TAF:

METAR-TAF

Airports :

Kuressaare Airport

Kuressaare, Estonia

latitude: 58-13-48N, longitude: 022-30-34E, elevation: 4 m

Current weather observation

The report was made 15 minutes ago, at 06:50 UTC
Calm wind
Temperature -17°C
Humidity 92%
Pressure 1021 hPa
Visibility 10 km or more

METAR: EEKE 170650Z AUTO 00000KT 9999NDV NCD M17/M18 Q1021

Time: 09:05 (07:05 UTC)

Forecast

The report was made 5 minutes ago, at 07:00 UTC
Forecast valid from 16 at 08 UTC to 16 at 14 UTC
Wind 12 kt from the East/Northeast
Visibility 10 km or more
Broken clouds at a height of 2000 ft
Probability 40% :
Temporary
from 16 at 08 UTC to 16 at 12 UTC
Visibility: 3000 m
Broken clouds at a height of 700 ft
Overcast at a height of 1500 ft
snow

TAF: EEKE 160700Z 1608/1614 06012KT 9999 BKN020 PROB40 TEMPO 1608/1612 3000 SN BKN007 OVC015

Weather observations and forecasts of more than 4000 airports (METAR and TAF reports).

The available stations are represented by yellow and red dots on the map.

Hover mouse over dot to see the name of the station.

Then click to see weather observations and forecasts.

To change the map : click on the green buttons with a black cross to zoom in, on the green button with a dash to zoom out, or on the green arrows for adjacent maps.


METAR-TAF: